sensor_id;sensor_type;location;lat;lon;timestamp;P1;durP1;ratioP1;P2;durP2;ratioP2
75550;SDS011;65071;53.082;18.218;2023-04-24T00:00:44;9.30;;;6.20;;
75550;SDS011;65071;53.082;18.218;2023-04-24T00:03:24;12.30;;;7.90;;
75550;SDS011;65071;53.082;18.218;2023-04-24T00:05:50;12.20;;;8.60;;
75550;SDS011;65071;53.082;18.218;2023-04-24T00:08:17;11.90;;;8.50;;
75550;SDS011;65071;53.082;18.218;2023-04-24T00:10:44;12.50;;;8.40;;
75550;SDS011;65071;53.082;18.218;2023-04-24T00:13:11;13.20;;;7.80;;
75550;SDS011;65071;53.082;18.218;2023-04-24T00:15:37;12.30;;;8.40;;
75550;SDS011;65071;53.082;18.218;2023-04-24T00:18:04;11.90;;;8.10;;
75550;SDS011;65071;53.082;18.218;2023-04-24T00:20:30;15.50;;;9.70;;
75550;SDS011;65071;53.082;18.218;2023-04-24T00:22:58;13.40;;;8.30;;
75550;SDS011;65071;53.082;18.218;2023-04-24T00:25:25;11.30;;;6.80;;
75550;SDS011;65071;53.082;18.218;2023-04-24T00:27:51;16.60;;;9.90;;
75550;SDS011;65071;53.082;18.218;2023-04-24T00:30:18;16.10;;;9.20;;
75550;SDS011;65071;53.082;18.218;2023-04-24T00:32:44;13.60;;;8.60;;
75550;SDS011;65071;53.082;18.218;2023-04-24T00:35:11;15.40;;;9.10;;
75550;SDS011;65071;53.082;18.218;2023-04-24T00:37:38;15.90;;;9.70;;
75550;SDS011;65071;53.082;18.218;2023-04-24T00:40:04;15.00;;;10.10;;
75550;SDS011;65071;53.082;18.218;2023-04-24T00:42:32;14.10;;;9.10;;
75550;SDS011;65071;53.082;18.218;2023-04-24T00:44:59;16.80;;;10.00;;
75550;SDS011;65071;53.082;18.218;2023-04-24T00:47:27;13.00;;;8.00;;
75550;SDS011;65071;53.082;18.218;2023-04-24T00:49:54;17.20;;;10.50;;
75550;SDS011;65071;53.082;18.218;2023-04-24T00:52:21;17.50;;;11.00;;
75550;SDS011;65071;53.082;18.218;2023-04-24T00:54:50;20.10;;;11.50;;
75550;SDS011;65071;53.082;18.218;2023-04-24T00:57:16;18.20;;;10.60;;
75550;SDS011;65071;53.082;18.218;2023-04-24T00:59:43;23.00;;;11.80;;
75550;SDS011;65071;53.082;18.218;2023-04-24T01:02:10;19.60;;;10.00;;
75550;SDS011;65071;53.082;18.218;2023-04-24T01:04:38;17.30;;;10.70;;
75550;SDS011;65071;53.082;18.218;2023-04-24T01:07:04;18.90;;;10.70;;
75550;SDS011;65071;53.082;18.218;2023-04-24T01:09:37;17.80;;;10.50;;
75550;SDS011;65071;53.082;18.218;2023-04-24T01:12:07;17.40;;;10.90;;
75550;SDS011;65071;53.082;18.218;2023-04-24T01:14:33;19.30;;;11.50;;
75550;SDS011;65071;53.082;18.218;2023-04-24T01:17:00;18.40;;;9.90;;
75550;SDS011;65071;53.082;18.218;2023-04-24T01:19:27;18.50;;;11.00;;
75550;SDS011;65071;53.082;18.218;2023-04-24T01:21:54;20.70;;;11.90;;
75550;SDS011;65071;53.082;18.218;2023-04-24T01:24:25;20.50;;;12.40;;
75550;SDS011;65071;53.082;18.218;2023-04-24T01:26:51;21.10;;;12.80;;
75550;SDS011;65071;53.082;18.218;2023-04-24T01:29:19;21.30;;;12.00;;
75550;SDS011;65071;53.082;18.218;2023-04-24T01:31:45;21.70;;;12.30;;
75550;SDS011;65071;53.082;18.218;2023-04-24T01:34:12;24.40;;;12.90;;
75550;SDS011;65071;53.082;18.218;2023-04-24T01:36:40;25.30;;;13.60;;
75550;SDS011;65071;53.082;18.218;2023-04-24T01:39:08;21.80;;;12.80;;
75550;SDS011;65071;53.082;18.218;2023-04-24T01:41:34;25.60;;;12.80;;
75550;SDS011;65071;53.082;18.218;2023-04-24T01:44:01;23.80;;;14.60;;
75550;SDS011;65071;53.082;18.218;2023-04-24T01:46:28;22.50;;;12.10;;
75550;SDS011;65071;53.082;18.218;2023-04-24T01:48:58;24.80;;;13.40;;
75550;SDS011;65071;53.082;18.218;2023-04-24T01:51:26;21.70;;;13.70;;
75550;SDS011;65071;53.082;18.218;2023-04-24T01:53:53;19.30;;;11.30;;
75550;SDS011;65071;53.082;18.218;2023-04-24T01:56:19;20.20;;;12.40;;
75550;SDS011;65071;53.082;18.218;2023-04-24T01:58:48;22.70;;;12.60;;
75550;SDS011;65071;53.082;18.218;2023-04-24T02:01:19;20.40;;;12.00;;
75550;SDS011;65071;53.082;18.218;2023-04-24T02:03:47;21.60;;;12.10;;
75550;SDS011;65071;53.082;18.218;2023-04-24T02:06:14;19.10;;;11.00;;
75550;SDS011;65071;53.082;18.218;2023-04-24T02:08:40;18.90;;;10.70;;
75550;SDS011;65071;53.082;18.218;2023-04-24T02:11:10;18.30;;;10.80;;
75550;SDS011;65071;53.082;18.218;2023-04-24T02:13:37;21.90;;;12.80;;
75550;SDS011;65071;53.082;18.218;2023-04-24T02:16:03;22.60;;;12.80;;
75550;SDS011;65071;53.082;18.218;2023-04-24T02:18:30;18.40;;;10.70;;
75550;SDS011;65071;53.082;18.218;2023-04-24T02:20:57;22.60;;;12.90;;
75550;SDS011;65071;53.082;18.218;2023-04-24T02:23:23;19.80;;;11.90;;
75550;SDS011;65071;53.082;18.218;2023-04-24T02:25:50;21.70;;;12.50;;
75550;SDS011;65071;53.082;18.218;2023-04-24T02:28:17;16.90;;;11.50;;
75550;SDS011;65071;53.082;18.218;2023-04-24T02:30:43;16.90;;;10.10;;
75550;SDS011;65071;53.082;18.218;2023-04-24T02:33:11;18.60;;;11.10;;
75550;SDS011;65071;53.082;18.218;2023-04-24T02:35:37;19.70;;;11.40;;
75550;SDS011;65071;53.082;18.218;2023-04-24T02:38:04;20.20;;;11.80;;
75550;SDS011;65071;53.082;18.218;2023-04-24T02:40:30;19.40;;;11.30;;
75550;SDS011;65071;53.082;18.218;2023-04-24T02:42:58;24.50;;;12.40;;
75550;SDS011;65071;53.082;18.218;2023-04-24T02:45:24;21.60;;;12.80;;
75550;SDS011;65071;53.082;18.218;2023-04-24T02:47:51;18.30;;;11.20;;
75550;SDS011;65071;53.082;18.218;2023-04-24T02:50:17;22.10;;;13.30;;
75550;SDS011;65071;53.082;18.218;2023-04-24T02:52:44;19.00;;;11.70;;
75550;SDS011;65071;53.082;18.218;2023-04-24T02:55:10;18.90;;;12.00;;
75550;SDS011;65071;53.082;18.218;2023-04-24T02:57:37;18.20;;;11.90;;
75550;SDS011;65071;53.082;18.218;2023-04-24T03:00:04;22.40;;;12.10;;
75550;SDS011;65071;53.082;18.218;2023-04-24T03:02:33;19.10;;;12.20;;
75550;SDS011;65071;53.082;18.218;2023-04-24T03:05:00;20.20;;;12.50;;
75550;SDS011;65071;53.082;18.218;2023-04-24T03:07:27;20.10;;;12.20;;
75550;SDS011;65071;53.082;18.218;2023-04-24T03:09:53;20.50;;;12.50;;
75550;SDS011;65071;53.082;18.218;2023-04-24T03:12:20;21.70;;;11.20;;
75550;SDS011;65071;53.082;18.218;2023-04-24T03:17:16;21.30;;;11.60;;
75550;SDS011;65071;53.082;18.218;2023-04-24T03:19:43;19.20;;;11.30;;
75550;SDS011;65071;53.082;18.218;2023-04-24T03:22:10;20.80;;;11.80;;
75550;SDS011;65071;53.082;18.218;2023-04-24T03:24:37;20.10;;;11.80;;
75550;SDS011;65071;53.082;18.218;2023-04-24T03:27:04;19.30;;;12.40;;
75550;SDS011;65071;53.082;18.218;2023-04-24T03:29:50;19.00;;;11.80;;
75550;SDS011;65071;53.082;18.218;2023-04-24T03:32:22;20.70;;;12.40;;
75550;SDS011;65071;53.082;18.218;2023-04-24T03:34:49;16.50;;;10.70;;
75550;SDS011;65071;53.082;18.218;2023-04-24T03:37:16;22.10;;;12.20;;
75550;SDS011;65071;53.082;18.218;2023-04-24T03:39:47;21.20;;;11.80;;
75550;SDS011;65071;53.082;18.218;2023-04-24T03:42:15;20.90;;;12.30;;
75550;SDS011;65071;53.082;18.218;2023-04-24T03:44:51;22.50;;;12.60;;
75550;SDS011;65071;53.082;18.218;2023-04-24T03:47:18;19.90;;;12.20;;
75550;SDS011;65071;53.082;18.218;2023-04-24T03:49:46;22.30;;;12.60;;
75550;SDS011;65071;53.082;18.218;2023-04-24T03:52:12;20.70;;;11.70;;
75550;SDS011;65071;53.082;18.218;2023-04-24T03:54:39;18.10;;;10.90;;
75550;SDS011;65071;53.082;18.218;2023-04-24T03:57:06;20.10;;;11.10;;
75550;SDS011;65071;53.082;18.218;2023-04-24T03:59:33;21.10;;;12.10;;
75550;SDS011;65071;53.082;18.218;2023-04-24T04:02:12;19.40;;;12.60;;
75550;SDS011;65071;53.082;18.218;2023-04-24T04:04:39;21.90;;;12.50;;
75550;SDS011;65071;53.082;18.218;2023-04-24T04:07:05;20.00;;;11.00;;
75550;SDS011;65071;53.082;18.218;2023-04-24T04:09:32;18.80;;;12.00;;
75550;SDS011;65071;53.082;18.218;2023-04-24T04:11:59;21.70;;;11.60;;
75550;SDS011;65071;53.082;18.218;2023-04-24T04:14:27;17.40;;;10.90;;
75550;SDS011;65071;53.082;18.218;2023-04-24T04:16:53;20.20;;;11.90;;
75550;SDS011;65071;53.082;18.218;2023-04-24T04:19:20;19.40;;;11.30;;
75550;SDS011;65071;53.082;18.218;2023-04-24T04:21:47;15.80;;;10.00;;
75550;SDS011;65071;53.082;18.218;2023-04-24T04:24:25;16.10;;;10.60;;
75550;SDS011;65071;53.082;18.218;2023-04-24T04:26:52;17.30;;;11.60;;
75550;SDS011;65071;53.082;18.218;2023-04-24T04:29:27;16.50;;;10.30;;
75550;SDS011;65071;53.082;18.218;2023-04-24T04:31:53;17.00;;;10.30;;
75550;SDS011;65071;53.082;18.218;2023-04-24T04:34:21;16.50;;;10.80;;
75550;SDS011;65071;53.082;18.218;2023-04-24T04:36:49;16.00;;;10.90;;
75550;SDS011;65071;53.082;18.218;2023-04-24T04:39:25;13.90;;;10.20;;
75550;SDS011;65071;53.082;18.218;2023-04-24T04:41:57;15.90;;;11.00;;
75550;SDS011;65071;53.082;18.218;2023-04-24T04:44:26;13.20;;;9.80;;
75550;SDS011;65071;53.082;18.218;2023-04-24T04:46:54;15.70;;;9.60;;
75550;SDS011;65071;53.082;18.218;2023-04-24T04:49:31;12.00;;;8.20;;
75550;SDS011;65071;53.082;18.218;2023-04-24T04:51:58;12.60;;;7.50;;
75550;SDS011;65071;53.082;18.218;2023-04-24T04:54:26;14.50;;;9.50;;
75550;SDS011;65071;53.082;18.218;2023-04-24T04:56:53;16.90;;;10.80;;
75550;SDS011;65071;53.082;18.218;2023-04-24T04:59:20;13.30;;;9.10;;
75550;SDS011;65071;53.082;18.218;2023-04-24T05:01:47;19.00;;;9.40;;
75550;SDS011;65071;53.082;18.218;2023-04-24T05:04:14;14.20;;;9.20;;
75550;SDS011;65071;53.082;18.218;2023-04-24T05:06:41;14.40;;;8.80;;
75550;SDS011;65071;53.082;18.218;2023-04-24T05:09:07;14.90;;;9.50;;
75550;SDS011;65071;53.082;18.218;2023-04-24T05:11:39;13.20;;;9.10;;
75550;SDS011;65071;53.082;18.218;2023-04-24T05:14:06;14.00;;;9.70;;
75550;SDS011;65071;53.082;18.218;2023-04-24T05:16:37;10.10;;;7.10;;
75550;SDS011;65071;53.082;18.218;2023-04-24T05:19:05;14.10;;;9.10;;
75550;SDS011;65071;53.082;18.218;2023-04-24T05:21:35;14.80;;;8.50;;
75550;SDS011;65071;53.082;18.218;2023-04-24T05:24:02;10.00;;;7.40;;
75550;SDS011;65071;53.082;18.218;2023-04-24T05:26:49;10.10;;;7.00;;
75550;SDS011;65071;53.082;18.218;2023-04-24T05:29:18;14.50;;;7.60;;
75550;SDS011;65071;53.082;18.218;2023-04-24T05:31:45;10.90;;;7.20;;
75550;SDS011;65071;53.082;18.218;2023-04-24T05:34:12;10.80;;;7.20;;
75550;SDS011;65071;53.082;18.218;2023-04-24T05:36:40;8.60;;;6.10;;
75550;SDS011;65071;53.082;18.218;2023-04-24T05:39:07;10.90;;;6.60;;
75550;SDS011;65071;53.082;18.218;2023-04-24T05:41:34;10.30;;;7.70;;
75550;SDS011;65071;53.082;18.218;2023-04-24T05:44:01;11.00;;;7.80;;
75550;SDS011;65071;53.082;18.218;2023-04-24T05:46:27;10.20;;;6.80;;
75550;SDS011;65071;53.082;18.218;2023-04-24T05:48:55;10.30;;;6.50;;
75550;SDS011;65071;53.082;18.218;2023-04-24T05:51:21;10.70;;;6.50;;
75550;SDS011;65071;53.082;18.218;2023-04-24T05:53:48;7.90;;;6.30;;
75550;SDS011;65071;53.082;18.218;2023-04-24T05:56:15;11.10;;;7.60;;
75550;SDS011;65071;53.082;18.218;2023-04-24T05:58:42;10.50;;;6.60;;
75550;SDS011;65071;53.082;18.218;2023-04-24T06:01:09;7.10;;;5.20;;
75550;SDS011;65071;53.082;18.218;2023-04-24T06:03:37;9.50;;;6.50;;
75550;SDS011;65071;53.082;18.218;2023-04-24T06:06:05;9.90;;;6.00;;
75550;SDS011;65071;53.082;18.218;2023-04-24T06:08:33;7.90;;;6.50;;
75550;SDS011;65071;53.082;18.218;2023-04-24T06:11:01;9.20;;;6.20;;
75550;SDS011;65071;53.082;18.218;2023-04-24T06:13:27;11.90;;;6.80;;
75550;SDS011;65071;53.082;18.218;2023-04-24T06:16:14;8.80;;;5.80;;
75550;SDS011;65071;53.082;18.218;2023-04-24T06:18:43;9.50;;;6.50;;
75550;SDS011;65071;53.082;18.218;2023-04-24T06:21:11;9.20;;;6.20;;
75550;SDS011;65071;53.082;18.218;2023-04-24T06:23:38;8.90;;;6.40;;
75550;SDS011;65071;53.082;18.218;2023-04-24T06:26:04;8.20;;;6.50;;
75550;SDS011;65071;53.082;18.218;2023-04-24T06:28:32;8.10;;;5.50;;
75550;SDS011;65071;53.082;18.218;2023-04-24T06:30:58;9.00;;;5.40;;
75550;SDS011;65071;53.082;18.218;2023-04-24T06:33:25;8.20;;;5.60;;
75550;SDS011;65071;53.082;18.218;2023-04-24T06:35:52;8.60;;;5.50;;
75550;SDS011;65071;53.082;18.218;2023-04-24T06:38:22;9.00;;;6.30;;
75550;SDS011;65071;53.082;18.218;2023-04-24T06:40:49;9.30;;;6.20;;
75550;SDS011;65071;53.082;18.218;2023-04-24T06:43:16;10.60;;;6.60;;
75550;SDS011;65071;53.082;18.218;2023-04-24T06:45:42;7.80;;;5.60;;
75550;SDS011;65071;53.082;18.218;2023-04-24T06:48:10;9.80;;;7.30;;
75550;SDS011;65071;53.082;18.218;2023-04-24T06:50:36;7.70;;;6.00;;
75550;SDS011;65071;53.082;18.218;2023-04-24T06:53:03;8.40;;;6.40;;
75550;SDS011;65071;53.082;18.218;2023-04-24T06:55:29;7.80;;;5.90;;
75550;SDS011;65071;53.082;18.218;2023-04-24T06:57:57;10.40;;;6.40;;
75550;SDS011;65071;53.082;18.218;2023-04-24T07:00:23;7.10;;;5.40;;
75550;SDS011;65071;53.082;18.218;2023-04-24T07:02:50;8.50;;;5.60;;
75550;SDS011;65071;53.082;18.218;2023-04-24T07:05:17;7.90;;;5.70;;
75550;SDS011;65071;53.082;18.218;2023-04-24T07:07:46;10.60;;;6.90;;
75550;SDS011;65071;53.082;18.218;2023-04-24T07:10:13;7.60;;;4.40;;
75550;SDS011;65071;53.082;18.218;2023-04-24T07:12:40;12.00;;;7.30;;
75550;SDS011;65071;53.082;18.218;2023-04-24T07:15:07;7.90;;;6.20;;
75550;SDS011;65071;53.082;18.218;2023-04-24T07:17:34;11.70;;;8.00;;
75550;SDS011;65071;53.082;18.218;2023-04-24T07:20:01;10.00;;;6.20;;
75550;SDS011;65071;53.082;18.218;2023-04-24T07:22:27;9.60;;;6.70;;
75550;SDS011;65071;53.082;18.218;2023-04-24T07:24:54;9.70;;;6.40;;
75550;SDS011;65071;53.082;18.218;2023-04-24T07:27:21;10.90;;;6.50;;
75550;SDS011;65071;53.082;18.218;2023-04-24T07:29:47;10.70;;;6.50;;
75550;SDS011;65071;53.082;18.218;2023-04-24T07:32:14;10.70;;;6.20;;
75550;SDS011;65071;53.082;18.218;2023-04-24T07:34:40;10.30;;;6.20;;
75550;SDS011;65071;53.082;18.218;2023-04-24T07:37:07;8.90;;;6.20;;
75550;SDS011;65071;53.082;18.218;2023-04-24T07:39:34;7.40;;;5.00;;
75550;SDS011;65071;53.082;18.218;2023-04-24T07:42:00;11.20;;;6.70;;
75550;SDS011;65071;53.082;18.218;2023-04-24T07:44:27;8.30;;;6.20;;
75550;SDS011;65071;53.082;18.218;2023-04-24T07:46:54;8.70;;;6.10;;
75550;SDS011;65071;53.082;18.218;2023-04-24T07:49:22;7.50;;;4.90;;
75550;SDS011;65071;53.082;18.218;2023-04-24T07:51:48;8.10;;;5.90;;
75550;SDS011;65071;53.082;18.218;2023-04-24T07:54:15;7.50;;;5.30;;
75550;SDS011;65071;53.082;18.218;2023-04-24T07:56:43;8.00;;;6.00;;
75550;SDS011;65071;53.082;18.218;2023-04-24T07:59:10;9.00;;;5.60;;
75550;SDS011;65071;53.082;18.218;2023-04-24T08:01:37;8.00;;;5.40;;
75550;SDS011;65071;53.082;18.218;2023-04-24T08:04:04;6.00;;;4.70;;
75550;SDS011;65071;53.082;18.218;2023-04-24T08:06:30;5.20;;;3.90;;
75550;SDS011;65071;53.082;18.218;2023-04-24T08:08:58;6.30;;;4.30;;
75550;SDS011;65071;53.082;18.218;2023-04-24T08:11:24;6.40;;;4.90;;
75550;SDS011;65071;53.082;18.218;2023-04-24T08:13:52;7.30;;;3.70;;
75550;SDS011;65071;53.082;18.218;2023-04-24T08:16:18;5.60;;;3.90;;
75550;SDS011;65071;53.082;18.218;2023-04-24T08:18:45;5.80;;;4.10;;
75550;SDS011;65071;53.082;18.218;2023-04-24T08:21:11;5.70;;;4.50;;
75550;SDS011;65071;53.082;18.218;2023-04-24T08:23:43;7.10;;;4.40;;
75550;SDS011;65071;53.082;18.218;2023-04-24T08:26:10;8.00;;;4.10;;
75550;SDS011;65071;53.082;18.218;2023-04-24T08:28:37;5.80;;;4.20;;
75550;SDS011;65071;53.082;18.218;2023-04-24T08:34:03;5.70;;;4.40;;
75550;SDS011;65071;53.082;18.218;2023-04-24T08:36:29;8.30;;;4.70;;
75550;SDS011;65071;53.082;18.218;2023-04-24T08:38:56;5.80;;;4.20;;
75550;SDS011;65071;53.082;18.218;2023-04-24T08:41:23;6.60;;;4.30;;
75550;SDS011;65071;53.082;18.218;2023-04-24T08:43:52;6.20;;;4.80;;
75550;SDS011;65071;53.082;18.218;2023-04-24T08:46:19;5.20;;;3.90;;
75550;SDS011;65071;53.082;18.218;2023-04-24T08:48:46;6.80;;;4.30;;
75550;SDS011;65071;53.082;18.218;2023-04-24T08:51:13;7.50;;;4.70;;
75550;SDS011;65071;53.082;18.218;2023-04-24T08:53:40;7.70;;;4.50;;
75550;SDS011;65071;53.082;18.218;2023-04-24T08:56:09;6.50;;;4.20;;
75550;SDS011;65071;53.082;18.218;2023-04-24T08:58:37;6.10;;;4.50;;
75550;SDS011;65071;53.082;18.218;2023-04-24T09:01:04;4.80;;;3.80;;
75550;SDS011;65071;53.082;18.218;2023-04-24T09:03:31;4.80;;;3.80;;
75550;SDS011;65071;53.082;18.218;2023-04-24T09:05:59;5.60;;;4.20;;
75550;SDS011;65071;53.082;18.218;2023-04-24T09:08:26;4.90;;;3.70;;
75550;SDS011;65071;53.082;18.218;2023-04-24T09:10:54;4.70;;;3.80;;
75550;SDS011;65071;53.082;18.218;2023-04-24T09:13:21;5.20;;;4.10;;
75550;SDS011;65071;53.082;18.218;2023-04-24T09:15:47;6.40;;;4.00;;
75550;SDS011;65071;53.082;18.218;2023-04-24T09:18:15;5.00;;;4.50;;
75550;SDS011;65071;53.082;18.218;2023-04-24T09:23:44;5.00;;;3.30;;
75550;SDS011;65071;53.082;18.218;2023-04-24T09:26:11;6.10;;;3.80;;
75550;SDS011;65071;53.082;18.218;2023-04-24T09:28:39;5.20;;;3.60;;
75550;SDS011;65071;53.082;18.218;2023-04-24T09:33:34;6.20;;;4.20;;
75550;SDS011;65071;53.082;18.218;2023-04-24T09:36:02;7.90;;;4.10;;
75550;SDS011;65071;53.082;18.218;2023-04-24T09:38:36;6.60;;;3.80;;
75550;SDS011;65071;53.082;18.218;2023-04-24T09:41:07;4.20;;;3.60;;
75550;SDS011;65071;53.082;18.218;2023-04-24T09:43:35;4.20;;;3.70;;
75550;SDS011;65071;53.082;18.218;2023-04-24T09:46:07;5.20;;;3.70;;
75550;SDS011;65071;53.082;18.218;2023-04-24T09:48:36;5.60;;;3.20;;
75550;SDS011;65071;53.082;18.218;2023-04-24T09:51:04;4.40;;;3.40;;
75550;SDS011;65071;53.082;18.218;2023-04-24T09:53:37;4.10;;;3.70;;
75550;SDS011;65071;53.082;18.218;2023-04-24T09:56:09;3.70;;;3.10;;
75550;SDS011;65071;53.082;18.218;2023-04-24T09:58:36;3.50;;;2.80;;
75550;SDS011;65071;53.082;18.218;2023-04-24T10:01:03;3.30;;;3.00;;
75550;SDS011;65071;53.082;18.218;2023-04-24T10:03:30;4.10;;;2.90;;
75550;SDS011;65071;53.082;18.218;2023-04-24T10:06:03;4.00;;;2.80;;
75550;SDS011;65071;53.082;18.218;2023-04-24T10:08:36;3.10;;;2.80;;
75550;SDS011;65071;53.082;18.218;2023-04-24T10:11:03;4.80;;;3.40;;
75550;SDS011;65071;53.082;18.218;2023-04-24T10:13:30;5.20;;;3.40;;
75550;SDS011;65071;53.082;18.218;2023-04-24T10:15:59;5.00;;;3.70;;
75550;SDS011;65071;53.082;18.218;2023-04-24T10:18:27;5.70;;;3.50;;
75550;SDS011;65071;53.082;18.218;2023-04-24T10:20:53;6.00;;;3.40;;
75550;SDS011;65071;53.082;18.218;2023-04-24T10:23:21;3.90;;;3.30;;
75550;SDS011;65071;53.082;18.218;2023-04-24T10:25:48;5.00;;;3.50;;
75550;SDS011;65071;53.082;18.218;2023-04-24T10:28:16;5.30;;;3.70;;
75550;SDS011;65071;53.082;18.218;2023-04-24T10:30:44;5.60;;;3.70;;
75550;SDS011;65071;53.082;18.218;2023-04-24T10:33:11;4.10;;;3.70;;
75550;SDS011;65071;53.082;18.218;2023-04-24T10:35:41;4.50;;;3.70;;
75550;SDS011;65071;53.082;18.218;2023-04-24T10:38:12;4.20;;;3.50;;
75550;SDS011;65071;53.082;18.218;2023-04-24T10:40:40;7.10;;;4.60;;
75550;SDS011;65071;53.082;18.218;2023-04-24T10:43:08;4.60;;;3.90;;
75550;SDS011;65071;53.082;18.218;2023-04-24T10:45:38;6.70;;;5.10;;
75550;SDS011;65071;53.082;18.218;2023-04-24T10:48:06;5.50;;;4.40;;
75550;SDS011;65071;53.082;18.218;2023-04-24T10:50:43;6.00;;;4.90;;
75550;SDS011;65071;53.082;18.218;2023-04-24T10:53:13;5.50;;;4.90;;
75550;SDS011;65071;53.082;18.218;2023-04-24T10:55:45;7.60;;;4.10;;
75550;SDS011;65071;53.082;18.218;2023-04-24T10:58:14;6.40;;;5.00;;
75550;SDS011;65071;53.082;18.218;2023-04-24T11:00:43;5.90;;;4.70;;
75550;SDS011;65071;53.082;18.218;2023-04-24T11:06:04;4.70;;;4.10;;
75550;SDS011;65071;53.082;18.218;2023-04-24T11:08:37;6.60;;;4.10;;
75550;SDS011;65071;53.082;18.218;2023-04-24T11:11:15;6.80;;;4.20;;
75550;SDS011;65071;53.082;18.218;2023-04-24T11:16:32;6.50;;;5.10;;
75550;SDS011;65071;53.082;18.218;2023-04-24T11:27:12;5.80;;;4.40;;
75550;SDS011;65071;53.082;18.218;2023-04-24T11:32:29;6.50;;;4.90;;
75550;SDS011;65071;53.082;18.218;2023-04-24T11:37:39;7.80;;;4.70;;
75550;SDS011;65071;53.082;18.218;2023-04-24T11:40:09;8.50;;;5.10;;
75550;SDS011;65071;53.082;18.218;2023-04-24T11:42:38;7.40;;;5.30;;
75550;SDS011;65071;53.082;18.218;2023-04-24T11:47:43;6.00;;;5.30;;
75550;SDS011;65071;53.082;18.218;2023-04-24T11:50:12;8.00;;;5.20;;
75550;SDS011;65071;53.082;18.218;2023-04-24T11:52:40;6.00;;;4.20;;
75550;SDS011;65071;53.082;18.218;2023-04-24T11:55:12;8.30;;;5.60;;
75550;SDS011;65071;53.082;18.218;2023-04-24T11:57:55;7.10;;;5.70;;
75550;SDS011;65071;53.082;18.218;2023-04-24T12:00:24;5.60;;;4.90;;
75550;SDS011;65071;53.082;18.218;2023-04-24T12:03:03;7.30;;;6.00;;
75550;SDS011;65071;53.082;18.218;2023-04-24T12:05:38;7.40;;;4.80;;
75550;SDS011;65071;53.082;18.218;2023-04-24T12:08:05;7.40;;;5.50;;
75550;SDS011;65071;53.082;18.218;2023-04-24T12:10:33;7.60;;;5.80;;
75550;SDS011;65071;53.082;18.218;2023-04-24T12:13:01;9.30;;;6.50;;
75550;SDS011;65071;53.082;18.218;2023-04-24T12:15:28;6.90;;;5.50;;
75550;SDS011;65071;53.082;18.218;2023-04-24T12:17:55;6.90;;;5.60;;
75550;SDS011;65071;53.082;18.218;2023-04-24T12:20:29;7.70;;;5.10;;
75550;SDS011;65071;53.082;18.218;2023-04-24T12:22:57;7.90;;;6.30;;
75550;SDS011;65071;53.082;18.218;2023-04-24T12:25:31;6.60;;;5.90;;
75550;SDS011;65071;53.082;18.218;2023-04-24T12:30:32;14.90;;;6.80;;
75550;SDS011;65071;53.082;18.218;2023-04-24T12:33:00;8.90;;;4.90;;
75550;SDS011;65071;53.082;18.218;2023-04-24T12:35:29;5.90;;;4.50;;
75550;SDS011;65071;53.082;18.218;2023-04-24T12:38:07;5.30;;;3.60;;
75550;SDS011;65071;53.082;18.218;2023-04-24T12:40:39;5.10;;;3.70;;
75550;SDS011;65071;53.082;18.218;2023-04-24T12:43:17;4.00;;;3.10;;
75550;SDS011;65071;53.082;18.218;2023-04-24T12:45:47;4.90;;;3.20;;
75550;SDS011;65071;53.082;18.218;2023-04-24T12:48:14;4.20;;;3.00;;
75550;SDS011;65071;53.082;18.218;2023-04-24T12:50:40;5.20;;;3.00;;
75550;SDS011;65071;53.082;18.218;2023-04-24T12:53:07;4.50;;;2.80;;
75550;SDS011;65071;53.082;18.218;2023-04-24T12:55:37;3.80;;;3.20;;
75550;SDS011;65071;53.082;18.218;2023-04-24T12:58:04;3.00;;;2.60;;
75550;SDS011;65071;53.082;18.218;2023-04-24T13:00:30;26.10;;;6.00;;
75550;SDS011;65071;53.082;18.218;2023-04-24T13:02:57;3.20;;;2.70;;
75550;SDS011;65071;53.082;18.218;2023-04-24T13:05:23;5.90;;;2.70;;
75550;SDS011;65071;53.082;18.218;2023-04-24T13:07:51;2.90;;;2.50;;
75550;SDS011;65071;53.082;18.218;2023-04-24T13:10:17;3.80;;;3.30;;
75550;SDS011;65071;53.082;18.218;2023-04-24T13:12:45;3.70;;;3.10;;
75550;SDS011;65071;53.082;18.218;2023-04-24T13:15:12;3.60;;;2.50;;
75550;SDS011;65071;53.082;18.218;2023-04-24T13:17:39;3.90;;;2.90;;
75550;SDS011;65071;53.082;18.218;2023-04-24T13:20:06;5.00;;;2.70;;
75550;SDS011;65071;53.082;18.218;2023-04-24T13:22:33;4.20;;;2.40;;
75550;SDS011;65071;53.082;18.218;2023-04-24T13:24:59;5.30;;;2.60;;
75550;SDS011;65071;53.082;18.218;2023-04-24T13:27:27;4.40;;;2.70;;
75550;SDS011;65071;53.082;18.218;2023-04-24T13:29:54;4.60;;;2.90;;
75550;SDS011;65071;53.082;18.218;2023-04-24T13:32:20;5.60;;;2.90;;
75550;SDS011;65071;53.082;18.218;2023-04-24T13:34:47;4.50;;;3.10;;
75550;SDS011;65071;53.082;18.218;2023-04-24T13:37:13;5.60;;;3.40;;
75550;SDS011;65071;53.082;18.218;2023-04-24T13:39:40;4.60;;;3.30;;
75550;SDS011;65071;53.082;18.218;2023-04-24T13:42:08;4.80;;;3.20;;
75550;SDS011;65071;53.082;18.218;2023-04-24T13:44:34;4.50;;;3.40;;
75550;SDS011;65071;53.082;18.218;2023-04-24T13:47:01;3.80;;;3.40;;
75550;SDS011;65071;53.082;18.218;2023-04-24T13:49:28;4.80;;;3.90;;
75550;SDS011;65071;53.082;18.218;2023-04-24T13:51:55;4.30;;;3.70;;
75550;SDS011;65071;53.082;18.218;2023-04-24T13:54:22;5.50;;;4.00;;
75550;SDS011;65071;53.082;18.218;2023-04-24T13:56:51;4.90;;;3.90;;
75550;SDS011;65071;53.082;18.218;2023-04-24T13:59:19;5.70;;;4.30;;
75550;SDS011;65071;53.082;18.218;2023-04-24T14:06:40;6.00;;;4.00;;
75550;SDS011;65071;53.082;18.218;2023-04-24T14:09:06;5.50;;;4.30;;
75550;SDS011;65071;53.082;18.218;2023-04-24T14:11:33;22.60;;;9.40;;
75550;SDS011;65071;53.082;18.218;2023-04-24T14:14:01;12.10;;;6.60;;
75550;SDS011;65071;53.082;18.218;2023-04-24T14:16:28;5.20;;;4.20;;
75550;SDS011;65071;53.082;18.218;2023-04-24T14:18:54;6.40;;;4.70;;
75550;SDS011;65071;53.082;18.218;2023-04-24T14:21:21;5.90;;;3.90;;
75550;SDS011;65071;53.082;18.218;2023-04-24T14:23:47;4.80;;;2.90;;
75550;SDS011;65071;53.082;18.218;2023-04-24T14:26:14;2.90;;;2.60;;
75550;SDS011;65071;53.082;18.218;2023-04-24T14:28:41;3.90;;;2.60;;
75550;SDS011;65071;53.082;18.218;2023-04-24T14:31:07;7.50;;;2.70;;
75550;SDS011;65071;53.082;18.218;2023-04-24T14:33:34;4.80;;;2.90;;
75550;SDS011;65071;53.082;18.218;2023-04-24T14:36:01;3.60;;;2.50;;
75550;SDS011;65071;53.082;18.218;2023-04-24T14:38:29;3.60;;;2.80;;
75550;SDS011;65071;53.082;18.218;2023-04-24T14:40:56;3.10;;;2.30;;
75550;SDS011;65071;53.082;18.218;2023-04-24T14:43:23;3.90;;;2.40;;
75550;SDS011;65071;53.082;18.218;2023-04-24T14:45:49;3.00;;;2.30;;
75550;SDS011;65071;53.082;18.218;2023-04-24T14:48:16;2.80;;;2.40;;
75550;SDS011;65071;53.082;18.218;2023-04-24T14:50:43;3.90;;;2.30;;
75550;SDS011;65071;53.082;18.218;2023-04-24T14:53:11;2.80;;;2.40;;
75550;SDS011;65071;53.082;18.218;2023-04-24T14:55:38;3.70;;;2.30;;
75550;SDS011;65071;53.082;18.218;2023-04-24T14:58:04;2.60;;;2.40;;
75550;SDS011;65071;53.082;18.218;2023-04-24T15:00:31;3.90;;;2.50;;
75550;SDS011;65071;53.082;18.218;2023-04-24T15:02:57;3.60;;;2.40;;
75550;SDS011;65071;53.082;18.218;2023-04-24T15:05:24;4.00;;;2.80;;
75550;SDS011;65071;53.082;18.218;2023-04-24T15:07:51;3.00;;;2.30;;
75550;SDS011;65071;53.082;18.218;2023-04-24T15:10:17;3.70;;;2.30;;